createdAt,value
2022-10-16T00:01:44.345Z,69.20
2022-10-16T00:04:11.471Z,69.30
2022-10-16T00:06:38.599Z,69.30
2022-10-16T00:09:10.513Z,69.30
2022-10-16T00:11:41.443Z,69.40
2022-10-16T00:14:15.374Z,69.40
2022-10-16T00:16:42.467Z,69.40
2022-10-16T00:19:13.915Z,69.40
2022-10-16T00:21:43.432Z,69.40
2022-10-16T00:24:11.911Z,69.60
2022-10-16T00:26:41.882Z,69.40
2022-10-16T00:29:11.637Z,69.30
2022-10-16T00:31:43.010Z,69.40
2022-10-16T00:34:12.392Z,69.40
2022-10-16T00:36:39.275Z,69.40
2022-10-16T00:39:09.247Z,69.40
2022-10-16T00:41:36.118Z,69.40
2022-10-16T00:44:46.158Z,69.50
2022-10-16T00:47:32.278Z,69.40
2022-10-16T00:50:19.243Z,69.50
2022-10-16T00:52:49.462Z,69.50
2022-10-16T00:55:21.850Z,69.50
2022-10-16T00:57:50.201Z,69.50
2022-10-16T01:00:23.780Z,69.50
2022-10-16T01:03:02.611Z,69.40
2022-10-16T01:05:43.964Z,69.50
2022-10-16T01:08:40.452Z,69.50
2022-10-16T01:11:20.958Z,69.50
2022-10-16T01:14:00.559Z,69.50
2022-10-16T01:16:41.748Z,69.40
2022-10-16T01:19:43.597Z,69.40
2022-10-16T01:22:10.861Z,69.40
2022-10-16T01:24:41.207Z,69.60
2022-10-16T01:27:32.077Z,69.30
2022-10-16T01:30:22.377Z,69.30
2022-10-16T01:33:02.341Z,69.40
2022-10-16T01:35:37.538Z,69.30
2022-10-16T01:38:25.064Z,69.30
2022-10-16T01:40:58.985Z,69.50
2022-10-16T01:43:44.330Z,69.30
2022-10-16T01:46:17.774Z,69.40
2022-10-16T01:48:44.632Z,69.40
2022-10-16T01:51:16.486Z,69.40
2022-10-16T01:53:49.302Z,69.40
2022-10-16T01:56:23.554Z,69.50
2022-10-16T01:58:59.114Z,69.60
2022-10-16T02:01:31.970Z,69.60
2022-10-16T02:04:04.799Z,69.50
2022-10-16T02:06:35.668Z,69.50
2022-10-16T02:09:02.839Z,69.60
2022-10-16T02:11:29.728Z,69.50
2022-10-16T02:14:08.079Z,69.60
2022-10-16T02:16:46.489Z,69.60
2022-10-16T02:19:20.739Z,69.60
2022-10-16T02:21:53.110Z,69.50
2022-10-16T02:24:37.530Z,69.60
2022-10-16T02:27:26.197Z,69.50
2022-10-16T02:30:26.792Z,69.60
2022-10-16T02:32:54.712Z,69.70
2022-10-16T02:35:23.132Z,70.40
2022-10-16T02:37:52.060Z,69.60
2022-10-16T02:40:24.502Z,69.50
2022-10-16T02:42:54.820Z,69.60
2022-10-16T02:45:24.243Z,69.60
2022-10-16T02:47:53.355Z,69.60
2022-10-16T02:50:23.369Z,69.70
2022-10-16T02:52:52.735Z,69.70
2022-10-16T02:55:22.649Z,69.70
2022-10-16T02:57:51.717Z,69.80
2022-10-16T03:00:21.773Z,69.70
2022-10-16T03:02:48.761Z,69.70
2022-10-16T03:07:56.653Z,69.60
2022-10-16T03:10:26.498Z,69.70
2022-10-16T03:12:53.366Z,69.60
2022-10-16T03:15:23.257Z,69.60
2022-10-16T03:17:50.183Z,69.60
2022-10-16T03:20:17.075Z,69.60
2022-10-16T03:22:46.457Z,69.60
2022-10-16T03:25:13.338Z,69.60
2022-10-16T03:27:40.202Z,69.60
2022-10-16T03:30:08.027Z,69.50
2022-10-16T03:35:02.982Z,69.40
2022-10-16T03:37:29.970Z,69.40
2022-10-16T03:39:56.921Z,69.40
2022-10-16T03:42:26.265Z,69.40
2022-10-16T03:44:53.119Z,69.30
2022-10-16T03:47:22.695Z,69.20
2022-10-16T03:49:50.547Z,69.20
2022-10-16T03:52:20.220Z,69.30
2022-10-16T03:54:49.597Z,69.30
2022-10-16T03:57:16.474Z,69.30
2022-10-16T03:59:43.477Z,69.30
2022-10-16T04:02:13.091Z,69.40
2022-10-16T04:04:42.021Z,69.30
2022-10-16T04:07:11.528Z,69.40
2022-10-16T04:09:38.388Z,69.40
2022-10-16T04:12:10.386Z,69.50
2022-10-16T04:14:37.245Z,69.50
2022-10-16T04:17:04.073Z,69.50
2022-10-16T04:19:30.967Z,69.50
2022-10-16T04:21:57.831Z,69.50
2022-10-16T04:24:24.727Z,69.50
2022-10-16T04:26:51.656Z,69.50
2022-10-16T04:29:21.083Z,69.60
2022-10-16T04:31:48.435Z,69.60
2022-10-16T04:34:15.373Z,69.60
2022-10-16T04:36:42.307Z,70.40
2022-10-16T04:39:11.589Z,69.50
2022-10-16T04:41:38.440Z,69.60
2022-10-16T04:44:09.769Z,69.60
2022-10-16T04:46:36.630Z,69.60
2022-10-16T04:49:05.960Z,69.60
2022-10-16T04:51:35.879Z,70.50
2022-10-16T04:54:05.231Z,69.60
2022-10-16T04:56:32.069Z,69.60
2022-10-16T04:59:01.167Z,69.70
2022-10-16T05:01:28.019Z,69.70
2022-10-16T05:03:54.874Z,69.70
2022-10-16T05:06:23.850Z,69.80
2022-10-16T05:08:52.741Z,69.70
2022-10-16T05:11:19.615Z,69.80
2022-10-16T05:13:46.405Z,69.80
2022-10-16T05:16:13.322Z,69.70
2022-10-16T05:18:40.229Z,69.80
2022-10-16T05:21:07.122Z,69.80
2022-10-16T05:23:34.151Z,69.70
2022-10-16T05:26:01.609Z,69.70
2022-10-16T05:28:33.522Z,69.80
2022-10-16T05:31:00.714Z,69.80
2022-10-16T05:33:29.854Z,69.80
2022-10-16T05:36:04.193Z,69.90
2022-10-16T05:38:33.143Z,69.90
2022-10-16T05:41:00.219Z,69.90
2022-10-16T05:43:29.825Z,69.90
2022-10-16T05:46:05.924Z,70.00
2022-10-16T05:48:35.507Z,69.90
2022-10-16T05:51:11.033Z,69.90
2022-10-16T05:53:39.830Z,69.90
2022-10-16T05:56:10.856Z,69.90
2022-10-16T05:58:41.354Z,69.90
2022-10-16T06:01:18.370Z,69.90
2022-10-16T06:03:45.653Z,69.90
2022-10-16T06:06:22.198Z,69.90
2022-10-16T06:08:54.954Z,69.90
2022-10-16T06:11:29.354Z,69.90
2022-10-16T06:14:07.903Z,69.90
2022-10-16T06:16:37.188Z,69.90
2022-10-16T06:19:10.372Z,69.90
2022-10-16T06:21:39.733Z,69.80
2022-10-16T06:24:06.624Z,69.80
2022-10-16T06:26:36.025Z,69.80
2022-10-16T06:29:03.385Z,69.80
2022-10-16T06:31:34.399Z,69.90
2022-10-16T06:34:05.711Z,69.90
2022-10-16T06:36:34.790Z,70.00
2022-10-16T06:39:01.700Z,70.10
2022-10-16T06:41:28.537Z,70.10
2022-10-16T06:43:59.988Z,70.10
2022-10-16T06:46:28.076Z,71.00
2022-10-16T06:48:57.471Z,70.20
2022-10-16T06:51:26.325Z,70.20
2022-10-16T06:54:04.397Z,70.20
2022-10-16T06:56:35.728Z,70.30
2022-10-16T06:59:03.687Z,70.30
2022-10-16T07:01:33.402Z,70.30
2022-10-16T07:04:02.270Z,70.30
2022-10-16T07:06:34.353Z,70.20
2022-10-16T07:09:05.615Z,70.30
2022-10-16T07:11:33.096Z,70.20
2022-10-16T07:14:00.462Z,70.30
2022-10-16T07:16:30.357Z,70.30
2022-10-16T07:19:03.327Z,70.30
2022-10-16T07:21:36.549Z,70.40
2022-10-16T07:24:10.522Z,70.40
2022-10-16T07:26:39.963Z,70.40
2022-10-16T07:29:19.786Z,70.40
2022-10-16T07:31:47.900Z,70.60
2022-10-16T07:34:19.402Z,70.50
2022-10-16T07:36:49.514Z,70.50
2022-10-16T07:39:16.473Z,71.60
2022-10-16T07:41:45.972Z,70.60
2022-10-16T07:44:12.934Z,70.50
2022-10-16T07:46:41.969Z,70.50
2022-10-16T07:49:12.361Z,70.60
2022-10-16T07:51:41.801Z,70.70
2022-10-16T07:54:10.966Z,70.80
2022-10-16T07:56:43.751Z,70.90
2022-10-16T07:59:13.594Z,70.90
2022-10-16T08:01:40.562Z,70.90
2022-10-16T08:04:07.472Z,70.80
2022-10-16T08:06:40.785Z,70.80
2022-10-16T08:09:09.207Z,70.90
2022-10-16T08:11:36.133Z,70.80
2022-10-16T08:14:05.232Z,70.80
2022-10-16T08:16:34.338Z,70.90
2022-10-16T08:19:03.606Z,70.80
2022-10-16T08:21:30.524Z,70.90
2022-10-16T08:23:59.966Z,70.80
2022-10-16T08:26:28.148Z,70.90
2022-10-16T08:28:56.252Z,70.90
2022-10-16T08:31:23.804Z,70.80
2022-10-16T08:33:54.190Z,70.70
2022-10-16T08:36:23.502Z,70.80
2022-10-16T08:38:51.534Z,70.90
2022-10-16T08:41:55.632Z,71.00
2022-10-16T08:45:10.008Z,71.20
2022-10-16T08:48:10.267Z,71.30
2022-10-16T08:50:40.954Z,71.30
2022-10-16T08:53:16.247Z,71.20
2022-10-16T08:55:50.292Z,71.30
2022-10-16T08:58:23.202Z,71.20
2022-10-16T09:00:55.597Z,71.20
2022-10-16T09:03:53.283Z,71.20
2022-10-16T09:06:38.139Z,71.20
2022-10-16T09:09:34.894Z,71.10
2022-10-16T09:12:11.596Z,71.00
2022-10-16T09:14:44.735Z,71.10
2022-10-16T09:17:48.387Z,71.00
2022-10-16T09:20:33.987Z,71.20
2022-10-16T09:23:09.370Z,71.20
2022-10-16T09:25:36.618Z,71.50
2022-10-16T09:28:03.557Z,71.40
2022-10-16T09:30:35.586Z,71.50
2022-10-16T09:33:03.944Z,71.30
2022-10-16T09:35:38.405Z,71.40
2022-10-16T09:38:06.202Z,71.50
2022-10-16T09:40:39.242Z,71.50
2022-10-16T09:43:21.404Z,71.60
2022-10-16T09:46:02.781Z,71.70
2022-10-16T09:48:54.189Z,71.70
2022-10-16T09:51:33.795Z,71.60
2022-10-16T09:54:12.337Z,71.40
2022-10-16T09:56:42.775Z,71.20
2022-10-16T09:59:21.752Z,71.20
2022-10-16T10:01:54.675Z,71.30
2022-10-16T10:04:26.715Z,71.20
2022-10-16T10:06:58.060Z,71.30
2022-10-16T10:09:34.791Z,71.30
2022-10-16T10:12:06.902Z,71.40
2022-10-16T10:14:48.795Z,72.40
2022-10-16T10:17:28.059Z,71.70
2022-10-16T10:20:19.473Z,71.70
2022-10-16T10:22:48.828Z,71.80
2022-10-16T10:25:39.839Z,71.70
2022-10-16T10:28:32.301Z,71.50
2022-10-16T10:31:24.460Z,71.60
2022-10-16T10:34:42.163Z,71.40
2022-10-16T10:37:31.171Z,71.10
2022-10-16T10:40:31.402Z,71.00
2022-10-16T10:43:08.342Z,70.70
2022-10-16T10:45:48.376Z,70.60
2022-10-16T10:48:25.418Z,70.20
2022-10-16T10:51:20.911Z,70.10
2022-10-16T10:54:32.147Z,69.80
2022-10-16T10:57:03.496Z,69.60
2022-10-16T11:00:03.939Z,69.60
2022-10-16T11:02:40.150Z,69.40
2022-10-16T11:05:30.915Z,69.40
2022-10-16T11:08:18.771Z,69.20
2022-10-16T11:10:50.084Z,68.50
2022-10-16T11:13:29.342Z,68.60
2022-10-16T11:16:01.501Z,68.70
2022-10-16T11:18:46.633Z,68.30
2022-10-16T11:21:18.651Z,68.10
2022-10-16T11:24:00.380Z,68.10
2022-10-16T11:26:50.405Z,68.20
2022-10-16T11:29:28.344Z,67.20
2022-10-16T11:32:06.701Z,66.80
2022-10-16T11:34:44.096Z,66.30
2022-10-16T11:37:21.693Z,66.20
2022-10-16T11:39:49.116Z,65.50
2022-10-16T11:42:38.604Z,65.60
2022-10-16T11:45:19.857Z,65.40
2022-10-16T11:47:59.629Z,64.70
2022-10-16T11:51:20.362Z,64.50
2022-10-16T11:53:57.814Z,64.30
2022-10-16T11:56:27.704Z,64.10
2022-10-16T11:59:04.861Z,64.00
2022-10-16T12:01:58.386Z,63.70
2022-10-16T12:04:46.583Z,63.10
2022-10-16T12:07:28.936Z,63.80
2022-10-16T12:09:57.144Z,62.80
2022-10-16T12:12:47.381Z,62.50
2022-10-16T12:15:54.067Z,61.50
2022-10-16T12:18:26.534Z,62.60
2022-10-16T12:21:05.577Z,61.10
2022-10-16T12:23:34.518Z,60.70
2022-10-16T12:26:04.308Z,60.80
2022-10-16T12:28:35.333Z,60.60
2022-10-16T12:31:09.515Z,59.90
2022-10-16T12:33:40.722Z,59.70
2022-10-16T12:36:15.560Z,59.40
2022-10-16T12:38:53.751Z,59.80
2022-10-16T12:41:40.936Z,58.70
2022-10-16T12:44:28.390Z,58.50
2022-10-16T12:46:55.271Z,58.00
2022-10-16T12:49:30.581Z,58.20
2022-10-16T12:51:57.870Z,57.90
2022-10-16T12:54:31.741Z,57.40
2022-10-16T12:57:25.961Z,57.40
2022-10-16T13:00:24.776Z,57.60
2022-10-16T13:03:22.090Z,57.00
2022-10-16T13:06:23.089Z,57.00
2022-10-16T13:09:11.740Z,56.70
2022-10-16T13:12:06.997Z,56.40
2022-10-16T13:15:13.287Z,56.40
2022-10-16T13:18:07.152Z,56.00
2022-10-16T13:21:01.641Z,55.70
2022-10-16T13:23:37.784Z,55.80
2022-10-16T13:26:41.002Z,55.70
2022-10-16T13:29:10.519Z,54.90
2022-10-16T13:31:40.119Z,55.40
2022-10-16T13:34:15.153Z,55.10
2022-10-16T13:37:02.720Z,54.90
2022-10-16T13:39:33.572Z,54.30
2022-10-16T13:42:24.053Z,54.40
2022-10-16T13:44:56.564Z,54.20
2022-10-16T13:47:35.749Z,54.30
2022-10-16T13:50:15.681Z,53.80
2022-10-16T13:52:42.959Z,54.10
2022-10-16T13:55:19.354Z,54.20
2022-10-16T13:57:46.577Z,54.00
2022-10-16T14:00:31.122Z,54.10
2022-10-16T14:03:14.273Z,53.70
2022-10-16T14:05:51.647Z,53.80
2022-10-16T14:08:18.881Z,54.00
2022-10-16T14:10:56.691Z,54.10
2022-10-16T14:13:38.549Z,53.80
2022-10-16T14:16:12.376Z,53.90
2022-10-16T14:18:41.293Z,53.90
2022-10-16T14:21:15.049Z,54.10
2022-10-16T14:23:43.798Z,54.20
2022-10-16T14:26:10.549Z,54.30
2022-10-16T14:28:41.457Z,54.40
2022-10-16T14:31:20.687Z,54.30
2022-10-16T14:33:49.957Z,54.20
2022-10-16T14:36:22.068Z,54.60
2022-10-16T14:39:07.808Z,54.50
2022-10-16T14:41:45.122Z,54.50
2022-10-16T14:44:21.334Z,54.50
2022-10-16T14:46:50.541Z,54.60
2022-10-16T14:49:22.069Z,54.70
2022-10-16T14:51:49.150Z,54.90
2022-10-16T14:54:19.627Z,55.00
2022-10-16T14:56:53.613Z,54.90
2022-10-16T14:59:37.286Z,54.90
2022-10-16T15:02:21.578Z,54.80
2022-10-16T15:04:51.906Z,55.60
2022-10-16T15:07:21.292Z,56.10
2022-10-16T15:09:50.990Z,56.40
2022-10-16T15:12:19.277Z,56.10
2022-10-16T15:14:46.162Z,56.40
2022-10-16T15:17:13.941Z,56.80
2022-10-16T15:19:45.401Z,57.10
2022-10-16T15:22:13.360Z,57.30
2022-10-16T15:24:42.847Z,57.60
2022-10-16T15:27:09.911Z,57.80
2022-10-16T15:29:39.748Z,58.20
2022-10-16T15:32:06.689Z,59.20
2022-10-16T15:34:36.035Z,58.70
2022-10-16T15:37:09.473Z,58.90
2022-10-16T15:39:40.543Z,59.20
2022-10-16T15:42:08.432Z,59.30
2022-10-16T15:44:35.386Z,59.40
2022-10-16T15:47:07.348Z,59.50
2022-10-16T15:49:34.477Z,59.60
2022-10-16T15:52:04.838Z,59.70
2022-10-16T15:54:31.669Z,59.50
2022-10-16T15:56:58.819Z,59.50
2022-10-16T15:59:25.701Z,59.50
2022-10-16T16:01:55.952Z,59.50
2022-10-16T16:04:44.342Z,59.60
2022-10-16T16:07:12.132Z,59.80
2022-10-16T16:09:39.173Z,59.90
2022-10-16T16:12:06.364Z,60.00
2022-10-16T16:14:33.507Z,60.10
2022-10-16T16:17:00.737Z,60.40
2022-10-16T16:19:27.910Z,60.40
2022-10-16T16:21:54.782Z,60.60
2022-10-16T16:24:21.702Z,60.70
2022-10-16T16:26:50.692Z,60.70
2022-10-16T16:29:17.614Z,60.90
2022-10-16T16:31:45.096Z,61.00
2022-10-16T16:34:14.993Z,61.20
2022-10-16T16:36:42.363Z,61.20
2022-10-16T16:39:09.291Z,61.40
2022-10-16T16:41:38.732Z,61.60
2022-10-16T16:44:10.407Z,61.70
2022-10-16T16:46:40.456Z,61.80
2022-10-16T16:49:08.318Z,61.90
2022-10-16T16:51:39.919Z,62.10
2022-10-16T16:54:09.113Z,62.20
2022-10-16T16:56:36.605Z,62.20
2022-10-16T16:59:05.827Z,62.30
2022-10-16T17:01:35.310Z,62.40
2022-10-16T17:04:03.189Z,63.40
2022-10-16T17:06:30.729Z,62.60
2022-10-16T17:08:59.032Z,62.70
2022-10-16T17:11:30.762Z,62.80
2022-10-16T17:14:01.738Z,63.00
2022-10-16T17:16:35.473Z,63.00
2022-10-16T17:19:16.944Z,63.10
2022-10-16T17:21:45.059Z,63.20
2022-10-16T17:24:16.541Z,63.20
2022-10-16T17:26:48.927Z,63.20
2022-10-16T17:29:18.719Z,63.50
2022-10-16T17:31:49.795Z,63.40
2022-10-16T17:34:17.356Z,63.40
2022-10-16T17:36:48.110Z,63.60
2022-10-16T17:39:18.049Z,63.70
2022-10-16T17:41:46.984Z,64.60
2022-10-16T17:44:25.632Z,63.90
2022-10-16T17:46:54.270Z,64.00
2022-10-16T17:54:45.270Z,64.20
2022-10-16T17:57:12.844Z,64.40
2022-10-16T18:03:11.320Z,64.30
2022-10-16T18:05:45.969Z,64.50
2022-10-16T18:08:59.426Z,64.80
2022-10-16T18:11:50.179Z,64.70
2022-10-16T18:14:41.626Z,64.90
2022-10-16T18:17:22.569Z,64.80
2022-10-16T18:19:51.457Z,65.10
2022-10-16T18:22:20.238Z,64.80
2022-10-16T18:24:53.886Z,64.90
2022-10-16T18:27:23.314Z,64.80
2022-10-16T18:30:08.540Z,64.80
2022-10-16T18:32:49.727Z,64.90
2022-10-16T18:35:17.974Z,65.00
2022-10-16T18:37:47.920Z,65.10
2022-10-16T18:40:17.363Z,65.00
2022-10-16T18:42:52.420Z,65.10
2022-10-16T18:45:37.103Z,65.10
2022-10-16T18:48:11.955Z,65.20
2022-10-16T18:50:50.192Z,65.30
2022-10-16T18:56:01.594Z,65.40
2022-10-16T18:58:32.317Z,65.60
2022-10-16T19:01:30.277Z,65.70
2022-10-16T19:04:17.882Z,66.00
2022-10-16T19:06:50.626Z,66.00
2022-10-16T19:09:24.089Z,65.80
2022-10-16T19:17:13.336Z,66.00
2022-10-16T19:23:02.552Z,66.30
2022-10-16T19:25:33.628Z,66.20
2022-10-16T19:28:08.097Z,66.20
2022-10-16T19:30:46.881Z,66.20
2022-10-16T19:36:13.269Z,66.30
2022-10-16T19:39:07.898Z,66.40
2022-10-16T19:44:23.484Z,66.20
2022-10-16T19:46:51.985Z,66.30
2022-10-16T19:49:22.817Z,66.20
2022-10-16T19:52:11.375Z,66.40
2022-10-16T19:54:39.220Z,66.20
2022-10-16T19:57:20.798Z,66.30
2022-10-16T19:59:50.078Z,66.30
2022-10-16T20:02:45.202Z,66.50
2022-10-16T20:05:17.828Z,66.20
2022-10-16T20:07:52.137Z,66.20
2022-10-16T20:10:30.259Z,66.20
2022-10-16T20:13:01.349Z,66.10
2022-10-16T20:15:36.171Z,66.20
2022-10-16T20:18:08.581Z,66.20
2022-10-16T20:20:49.662Z,66.10
2022-10-16T20:23:23.812Z,66.10
2022-10-16T20:25:56.578Z,66.10
2022-10-16T20:28:39.817Z,66.20
2022-10-16T20:31:08.914Z,66.10
2022-10-16T20:33:42.320Z,66.40
2022-10-16T20:36:16.839Z,66.20
2022-10-16T20:38:46.535Z,66.20
2022-10-16T20:41:15.036Z,66.20
2022-10-16T20:43:46.792Z,66.30
2022-10-16T20:46:18.729Z,66.30
2022-10-16T20:48:47.617Z,66.30
2022-10-16T20:51:24.084Z,66.30
2022-10-16T20:54:12.183Z,66.30
2022-10-16T20:56:42.549Z,66.40
2022-10-16T20:59:14.022Z,66.30
2022-10-16T21:01:43.633Z,66.40
2022-10-16T21:04:10.755Z,66.50
2022-10-16T21:06:40.920Z,66.40
2022-10-16T21:09:12.599Z,66.40
2022-10-16T21:11:39.669Z,66.40
2022-10-16T21:14:08.682Z,66.50
2022-10-16T21:16:43.299Z,66.50
2022-10-16T21:19:12.822Z,66.50
2022-10-16T21:21:39.804Z,66.60
2022-10-16T21:24:11.959Z,66.60
2022-10-16T21:26:42.190Z,66.50
2022-10-16T21:29:10.009Z,66.50
2022-10-16T21:31:39.523Z,66.60
2022-10-16T21:34:06.692Z,66.50
2022-10-16T21:36:39.206Z,66.60
2022-10-16T21:39:14.979Z,66.50
2022-10-16T21:41:46.948Z,66.70
2022-10-16T21:44:14.778Z,66.70
2022-10-16T21:46:44.081Z,66.70
2022-10-16T21:49:17.781Z,66.80
2022-10-16T21:51:50.854Z,66.80
2022-10-16T21:54:23.257Z,66.80
2022-10-16T21:56:52.999Z,66.80
2022-10-16T21:59:21.744Z,66.80
2022-10-16T22:01:48.814Z,66.80
2022-10-16T22:04:17.068Z,66.80
2022-10-16T22:06:44.363Z,66.80
2022-10-16T22:09:17.150Z,66.80
2022-10-16T22:11:45.207Z,66.80
2022-10-16T22:14:18.565Z,66.70
2022-10-16T22:16:46.692Z,67.50
2022-10-16T22:19:19.207Z,66.70
2022-10-16T22:21:47.653Z,66.70
2022-10-16T22:24:17.582Z,66.70
2022-10-16T22:26:45.339Z,66.70
2022-10-16T22:29:13.965Z,66.70
2022-10-16T22:31:41.045Z,66.60
2022-10-16T22:34:14.850Z,66.70
2022-10-16T22:36:41.814Z,66.70
2022-10-16T22:39:11.226Z,66.80
2022-10-16T22:41:40.695Z,66.80
2022-10-16T22:44:15.013Z,66.90
2022-10-16T22:46:44.391Z,66.80
2022-10-16T22:49:17.976Z,66.80
2022-10-16T22:51:47.291Z,66.90
2022-10-16T22:54:17.239Z,66.90
2022-10-16T22:56:48.804Z,66.90
2022-10-16T22:59:15.662Z,66.80
2022-10-16T23:01:43.160Z,67.10
2022-10-16T23:04:10.163Z,66.90
2022-10-16T23:06:37.243Z,66.80
2022-10-16T23:09:07.170Z,66.70
2022-10-16T23:11:34.188Z,66.70
2022-10-16T23:14:01.216Z,66.80
2022-10-16T23:16:34.261Z,66.70
2022-10-16T23:19:01.295Z,66.70
2022-10-16T23:21:31.217Z,66.70
2022-10-16T23:24:01.272Z,66.70
2022-10-16T23:26:28.194Z,66.50
2022-10-16T23:29:01.634Z,66.50
2022-10-16T23:31:29.579Z,66.50
2022-10-16T23:34:03.189Z,66.50
2022-10-16T23:36:34.756Z,66.50
2022-10-16T23:39:01.583Z,66.60
2022-10-16T23:41:28.546Z,66.80
2022-10-16T23:43:56.771Z,66.70
2022-10-16T23:48:50.595Z,66.60
2022-10-16T23:51:20.273Z,66.50
2022-10-16T23:53:47.687Z,66.40
2022-10-16T23:56:17.337Z,67.20
2022-10-16T23:58:46.670Z,66.40
